Time;durP1;ratioP1;P1;durP2;ratioP2;P2;SDS_P1;SDS_P2;PMS_P1;PMS_P2;Temp;Humidity;BMP_temperature;BMP_pressure;BME280_temperature;BME280_humidity;BME280_pressure;Samples;Min_cycle;Max_cycle;Signal;HPM_P1;HPM_P2
2021/12/30 00:01:21;;;;;;;;;1.00;0.75;;;;;18.94;63.43;100899.00;6191640;22;45624;-79
2021/12/30 00:03:48;;;;;;;;;2.50;1.00;;;;;18.74;63.75;100902.91;6219033;22;46735;-79
2021/12/30 00:06:17;;;;;;;;;0.00;0.00;;;;;18.82;63.75;100908.19;6190896;22;45469;-79
2021/12/30 00:08:43;;;;;;;;;0.00;0.00;;;;;18.80;63.69;100910.03;6218280;22;45592;-80
2021/12/30 00:11:09;;;;;;;;;0.00;0.00;;;;;18.71;63.96;100908.34;6191853;22;45507;-80
2021/12/30 00:13:35;;;;;;;;;0.00;0.00;;;;;18.73;63.79;100924.50;6221461;22;45335;-80
2021/12/30 00:16:00;;;;;;;;;0.00;0.00;;;;;18.69;63.58;100926.34;6221976;22;45448;-80
2021/12/30 00:18:27;;;;;;;;;0.00;0.00;;;;;18.85;63.71;100908.16;6195495;22;45469;-80
2021/12/30 00:20:53;;;;;;;;;0.00;0.00;;;;;18.74;63.84;100918.19;6195299;22;45335;-79
2021/12/30 00:23:19;;;;;;;;;0.00;0.00;;;;;18.70;63.81;100913.75;6193952;22;48155;-80
2021/12/30 00:25:44;;;;;;;;;1.00;1.00;;;;;18.65;64.00;100899.50;6217237;22;45423;-80
2021/12/30 00:28:14;;;;;;;;;0.00;0.00;;;;;18.83;63.79;100903.72;6217440;22;45404;-80
2021/12/30 00:34:02;;;;;;;;;0.00;0.00;;;;;18.73;63.88;100916.41;6217754;22;45800;-80
2021/12/30 00:36:27;;;;;;;;;0.00;0.00;;;;;18.66;63.87;100912.03;6191008;22;45316;-80
2021/12/30 00:38:53;;;;;;;;;0.00;0.00;;;;;18.67;63.97;100921.91;6218546;22;45768;-79
2021/12/30 00:41:19;;;;;;;;;1.50;0.00;;;;;18.65;64.18;100921.03;6219209;22;45331;-80
2021/12/30 00:43:46;;;;;;;;;2.00;0.00;;;;;18.81;63.93;100924.41;6190345;22;46748;-79
2021/12/30 00:46:12;;;;;;;;;0.00;0.00;;;;;18.67;63.79;100921.91;6218243;22;45435;-80
2021/12/30 00:48:38;;;;;;;;;0.25;0.00;;;;;18.72;64.18;100925.41;6220327;22;45384;-80
2021/12/30 00:51:04;;;;;;;;;0.00;0.00;;;;;18.65;64.20;100923.72;6219167;22;45370;-79
2021/12/30 00:53:29;;;;;;;;;0.00;0.00;;;;;18.71;64.04;100939.78;6218886;22;45861;-81
2021/12/30 00:55:55;;;;;;;;;0.00;0.00;;;;;18.66;64.20;100937.16;6192801;22;45895;-81
2021/12/30 00:58:20;;;;;;;;;0.00;0.00;;;;;18.68;64.17;100934.44;6220372;22;45318;-81
2021/12/30 01:00:46;;;;;;;;;1.00;1.00;;;;;18.70;63.85;100943.38;6192058;22;45706;-81
2021/12/30 01:03:13;;;;;;;;;0.25;0.25;;;;;18.76;64.00;100943.28;6216962;22;45338;-79
2021/12/30 01:05:39;;;;;;;;;0.25;0.25;;;;;18.64;64.35;100944.38;6217674;22;45876;-81
2021/12/30 01:08:08;;;;;;;;;0.25;0.25;;;;;18.76;64.07;100944.19;6189268;22;45366;-81
2021/12/30 01:10:34;;;;;;;;;0.00;0.00;;;;;18.68;64.38;100947.91;6190180;22;45591;-80
2021/12/30 01:13:05;;;;;;;;;1.00;1.00;;;;;18.73;64.06;100956.81;6217444;22;46133;-81
2021/12/30 01:15:45;;;;;;;;;0.00;0.00;;;;;18.66;64.14;100963.22;6189560;22;45354;-80
2021/12/30 01:20:50;;;;;;;;;1.00;1.00;;;;;18.68;64.47;100974.84;6218644;22;44908;-80
2021/12/30 01:23:16;;;;;;;;;0.00;0.00;;;;;18.64;64.58;100965.03;6214786;22;47081;-81
2021/12/30 01:25:41;;;;;;;;;0.00;0.00;;;;;18.61;64.40;100970.50;6190874;22;45286;-80
2021/12/30 01:28:07;;;;;;;;;0.00;0.00;;;;;18.64;64.53;100976.69;6191182;22;45433;-80
2021/12/30 01:30:34;;;;;;;;;0.25;0.25;;;;;18.82;64.71;100975.56;6190926;22;45389;-80
2021/12/30 01:32:59;;;;;;;;;0.00;0.00;;;;;18.63;64.68;100976.75;6188418;22;46592;-80
2021/12/30 01:35:26;;;;;;;;;0.25;0.25;;;;;18.60;64.88;100974.97;6215767;22;45357;-81
2021/12/30 01:37:54;;;;;;;;;0.00;0.00;;;;;18.62;65.30;100980.34;6189443;22;45386;-80
2021/12/30 01:40:21;;;;;;;;;0.25;0.25;;;;;18.61;65.03;100981.28;6192285;22;45716;-81
2021/12/30 01:42:49;;;;;;;;;0.75;0.75;;;;;18.70;64.86;100978.41;6219170;22;45751;-81
2021/12/30 01:45:14;;;;;;;;;0.00;0.00;;;;;18.57;65.19;100994.75;6217966;22;45338;-80
2021/12/30 01:47:47;;;;;;;;;1.00;1.00;;;;;18.59;64.77;100989.38;6190838;22;45747;-81
2021/12/30 01:50:13;;;;;;;;;0.75;0.00;;;;;18.56;64.98;100984.91;6219691;22;44786;-81
2021/12/30 01:52:38;;;;;;;;;1.00;1.00;;;;;18.54;65.11;100986.75;6220157;22;45398;-81
2021/12/30 01:55:06;;;;;;;;;1.00;1.00;;;;;18.75;65.13;100990.03;6190852;22;45452;-81
2021/12/30 01:57:31;;;;;;;;;0.25;0.25;;;;;18.54;65.33;100997.53;6216677;22;45290;-81
2021/12/30 01:59:57;;;;;;;;;0.25;0.00;;;;;18.54;65.06;100989.44;6216389;22;45264;-81
2021/12/30 02:02:22;;;;;;;;;0.00;0.00;;;;;18.61;65.07;101002.81;6216975;22;45593;-81
2021/12/30 02:04:47;;;;;;;;;0.00;0.00;;;;;18.62;64.98;100994.69;6216535;22;45259;-81
2021/12/30 02:07:14;;;;;;;;;0.00;0.00;;;;;18.81;65.16;100995.34;6189969;22;45612;-81
2021/12/30 02:09:40;;;;;;;;;1.00;1.00;;;;;18.59;65.34;100998.31;6216874;22;45303;-81
2021/12/30 02:12:06;;;;;;;;;0.00;0.00;;;;;18.68;65.19;100999.09;6189573;22;46611;-81
2021/12/30 02:14:35;;;;;;;;;1.00;1.00;;;;;18.72;65.17;101001.75;6193851;22;45393;-81
2021/12/30 02:17:03;;;;;;;;;0.00;0.00;;;;;18.74;65.29;101007.09;6220912;22;45371;-79
2021/12/30 02:19:28;;;;;;;;;0.00;0.00;;;;;18.63;64.96;101004.56;6217343;22;45358;-81
2021/12/30 02:21:53;;;;;;;;;2.00;1.00;;;;;18.63;64.84;101017.16;6216052;22;46032;-81
2021/12/30 02:24:19;;;;;;;;;0.25;0.25;;;;;18.66;64.94;101003.63;6216180;22;45768;-79
2021/12/30 02:26:44;;;;;;;;;0.00;0.00;;;;;18.66;64.75;101006.31;6190205;22;45466;-81
2021/12/30 02:29:10;;;;;;;;;1.00;1.00;;;;;18.68;64.97;101018.84;6219212;22;45480;-80
2021/12/30 02:34:57;;;;;;;;;0.00;0.00;;;;;18.70;64.62;101019.72;6219192;22;45238;-79
2021/12/30 02:37:22;;;;;;;;;1.75;1.00;;;;;18.72;64.51;101023.31;6219890;22;44734;-81
2021/12/30 02:39:53;;;;;;;;;1.00;1.00;;;;;18.92;64.24;101014.91;6218806;22;45605;-80
2021/12/30 02:42:26;;;;;;;;;0.00;0.00;;;;;19.03;64.05;101040.78;6213679;22;47144;-79
2021/12/30 02:44:52;;;;;;;;;0.50;0.25;;;;;18.75;64.48;101039.41;6188390;22;45373;-80
2021/12/30 02:47:19;;;;;;;;;1.50;0.75;;;;;18.87;64.39;101032.97;6216788;22;45338;-80
2021/12/30 02:49:44;;;;;;;;;0.00;0.00;;;;;18.77;64.64;101039.38;6189935;22;45988;-80
2021/12/30 02:52:10;;;;;;;;;1.00;0.00;;;;;18.74;64.23;101044.81;6217376;22;46363;-80
2021/12/30 02:54:39;;;;;;;;;0.00;0.00;;;;;18.91;64.17;101056.28;6190658;22;45218;-80
2021/12/30 02:57:04;;;;;;;;;0.00;0.00;;;;;18.69;64.03;101052.09;6191002;22;44816;-81
2021/12/30 02:59:30;;;;;;;;;0.25;0.25;;;;;18.71;64.10;101058.34;6217980;22;44825;-81
2021/12/30 03:01:55;;;;;;;;;0.00;0.00;;;;;18.70;64.20;101046.66;6190153;22;47033;-81
2021/12/30 03:04:20;;;;;;;;;0.00;0.00;;;;;18.78;63.90;101054.63;6218393;22;45408;-81
2021/12/30 03:06:54;;;;;;;;;0.75;0.75;;;;;18.74;63.77;101048.41;6218034;22;45674;-81
2021/12/30 03:09:20;;;;;;;;;1.25;0.75;;;;;18.76;63.90;101051.06;6216366;22;45402;-81
2021/12/30 03:11:45;;;;;;;;;2.00;0.00;;;;;18.74;63.68;101039.41;6190495;22;47322;-81
2021/12/30 03:14:11;;;;;;;;;0.00;0.00;;;;;18.77;63.86;101050.16;6218268;22;45388;-81
2021/12/30 03:16:37;;;;;;;;;0.75;0.75;;;;;18.77;63.67;101047.47;6190996;22;45806;-81
2021/12/30 03:19:04;;;;;;;;;0.00;0.00;;;;;18.81;63.56;101049.25;6190716;22;45572;-81
2021/12/30 03:21:30;;;;;;;;;0.50;0.50;;;;;18.78;63.90;101066.31;6190558;22;48077;-81
2021/12/30 03:23:59;;;;;;;;;0.00;0.00;;;;;18.96;63.76;101054.38;6189818;22;45803;-81
2021/12/30 03:26:25;;;;;;;;;1.00;0.00;;;;;18.75;63.77;101060.06;6215324;22;45481;-81
2021/12/30 03:28:50;;;;;;;;;0.00;0.00;;;;;18.76;63.58;101059.16;6218071;22;45307;-81
2021/12/30 03:31:18;;;;;;;;;0.00;0.00;;;;;18.91;63.75;101061.66;6217927;22;45714;-81
2021/12/30 03:33:44;;;;;;;;;0.00;0.00;;;;;18.77;63.62;101059.13;6218635;22;45371;-81
2021/12/30 03:36:11;;;;;;;;;1.00;0.00;;;;;18.83;63.74;101052.81;6189578;22;45451;-81
2021/12/30 03:38:43;;;;;;;;;0.75;0.25;;;;;18.94;63.09;101045.41;6218006;22;45354;-81
2021/12/30 03:41:11;;;;;;;;;0.00;0.00;;;;;18.90;63.73;101050.91;6189833;22;48315;-81
2021/12/30 03:43:37;;;;;;;;;0.00;0.00;;;;;18.73;63.33;101038.53;6218000;22;45379;-81
2021/12/30 03:46:04;;;;;;;;;0.50;0.00;;;;;18.81;63.46;101035.75;6216977;22;45307;-80
2021/12/30 03:48:34;;;;;;;;;0.00;0.00;;;;;18.75;63.48;101044.78;6217824;22;45514;-79
2021/12/30 03:51:06;;;;;;;;;1.00;1.00;;;;;18.94;63.46;101034.63;6215381;22;45451;-79
2021/12/30 03:53:38;;;;;;;;;0.00;0.00;;;;;18.95;63.34;101031.03;6188036;22;45429;-81
2021/12/30 03:56:09;;;;;;;;;0.00;0.00;;;;;18.91;63.18;101036.53;6191805;22;45406;-80
2021/12/30 03:58:35;;;;;;;;;0.00;0.00;;;;;18.64;63.46;101029.69;6221568;22;45359;-80
2021/12/30 04:01:03;;;;;;;;;1.00;0.00;;;;;18.82;63.70;101029.44;6193371;22;47627;-80
2021/12/30 04:03:28;;;;;;;;;0.00;0.00;;;;;18.64;63.49;101032.38;6217939;22;45695;-80
2021/12/30 04:05:53;;;;;;;;;0.00;0.00;;;;;18.67;63.54;101026.97;6218128;22;45445;-80
2021/12/30 04:08:19;;;;;;;;;0.00;0.00;;;;;18.71;63.37;101026.00;6189601;22;45569;-80
2021/12/30 04:10:44;;;;;;;;;0.00;0.00;;;;;18.70;63.32;101018.81;6189973;22;47106;-80
2021/12/30 04:13:13;;;;;;;;;0.00;0.00;;;;;18.91;63.01;101029.31;6187706;22;45299;-79
2021/12/30 04:15:38;;;;;;;;;0.00;0.00;;;;;18.69;63.05;101027.84;6187554;22;45838;-80
2021/12/30 04:18:04;;;;;;;;;1.50;0.50;;;;;18.74;63.04;101031.34;6188569;22;45377;-80
2021/12/30 04:20:29;;;;;;;;;0.50;0.00;;;;;18.77;63.26;101042.09;6214935;22;45485;-80
2021/12/30 04:22:54;;;;;;;;;0.00;0.00;;;;;18.77;63.37;101031.31;6215589;22;45354;-79
2021/12/30 04:25:21;;;;;;;;;0.00;0.00;;;;;18.95;63.08;101038.25;6189330;22;44914;-80
2021/12/30 04:27:46;;;;;;;;;0.00;0.00;;;;;18.76;62.92;101041.19;6189555;22;45612;-80
2021/12/30 04:30:14;;;;;;;;;0.00;0.00;;;;;18.92;62.98;101033.78;6216212;22;45304;-80
2021/12/30 04:32:40;;;;;;;;;0.75;0.75;;;;;18.80;62.87;101025.88;6187824;22;45378;-81
2021/12/30 04:35:06;;;;;;;;;0.50;0.50;;;;;18.88;62.98;101023.97;6216956;22;45367;-80
2021/12/30 04:37:33;;;;;;;;;0.00;0.00;;;;;18.95;62.45;101027.47;6217206;22;45399;-81
2021/12/30 04:39:59;;;;;;;;;0.00;0.00;;;;;18.79;62.67;101029.50;6217219;22;45359;-80
2021/12/30 04:42:25;;;;;;;;;0.00;0.00;;;;;18.79;62.82;101030.38;6218038;22;45336;-81
2021/12/30 04:44:50;;;;;;;;;0.00;0.00;;;;;18.79;62.56;101035.78;6190780;22;45337;-80
2021/12/30 04:47:16;;;;;;;;;1.00;1.00;;;;;18.85;62.42;101040.19;6216989;22;45382;-81
2021/12/30 04:49:43;;;;;;;;;0.00;0.00;;;;;19.01;62.47;101046.25;6189532;22;47415;-81
2021/12/30 04:52:08;;;;;;;;;0.00;0.00;;;;;18.82;62.31;101059.09;6189047;22;45859;-81
2021/12/30 04:54:34;;;;;;;;;0.00;0.00;;;;;18.79;62.42;101060.03;6189788;22;45337;-81
2021/12/30 04:56:59;;;;;;;;;0.00;0.00;;;;;18.67;62.30;101065.56;6190288;22;45469;-80
2021/12/30 04:59:25;;;;;;;;;1.00;0.00;;;;;18.62;62.33;101069.22;6217461;22;45339;-82
2021/12/30 05:01:51;;;;;;;;;0.00;0.00;;;;;18.74;62.57;101063.66;6217701;22;45738;-80
2021/12/30 05:04:17;;;;;;;;;0.00;0.00;;;;;18.54;62.55;101070.25;6190330;22;45434;-80
2021/12/30 05:06:43;;;;;;;;;0.00;0.00;;;;;18.51;62.85;101067.56;6189359;22;45438;-80
2021/12/30 05:09:08;;;;;;;;;0.00;0.00;;;;;18.46;62.57;101074.84;6215119;22;46745;-80
2021/12/30 05:11:34;;;;;;;;;0.25;0.25;;;;;18.49;62.83;101079.28;6188272;22;45430;-79
2021/12/30 05:14:00;;;;;;;;;0.00;0.00;;;;;18.61;62.64;101078.25;6216343;22;44718;-80
2021/12/30 05:16:26;;;;;;;;;0.75;0.75;;;;;18.47;62.98;101082.00;6189558;22;45308;-80
2021/12/30 05:18:56;;;;;;;;;0.00;0.00;;;;;18.54;62.84;101078.31;6189548;22;46763;-80
2021/12/30 05:21:21;;;;;;;;;0.00;0.00;;;;;18.49;62.86;101080.19;6216845;22;45494;-81
2021/12/30 05:23:46;;;;;;;;;0.00;0.00;;;;;18.45;62.83;101067.66;6218770;22;45438;-81
2021/12/30 05:26:15;;;;;;;;;0.00;0.00;;;;;18.44;62.63;101065.91;6190915;22;45513;-81
2021/12/30 05:28:40;;;;;;;;;0.00;0.00;;;;;18.41;62.94;101059.66;6190924;22;48092;-80
2021/12/30 05:31:06;;;;;;;;;1.00;1.00;;;;;18.39;62.79;101078.50;6191736;22;45354;-80
2021/12/30 05:33:31;;;;;;;;;1.50;1.50;;;;;18.28;63.11;101069.66;6223529;22;45401;-81
2021/12/30 05:35:57;;;;;;;;;0.75;0.75;;;;;18.29;63.10;101098.38;6195537;22;45319;-80
2021/12/30 05:38:22;;;;;;;;;1.00;1.00;;;;;18.23;62.91;101109.22;6221704;22;45413;-81
2021/12/30 05:40:47;;;;;;;;;0.75;0.25;;;;;18.17;63.68;101112.88;6220999;22;45469;-81
2021/12/30 05:43:13;;;;;;;;;0.00;0.00;;;;;18.14;63.40;101107.56;6194388;22;44813;-80
2021/12/30 05:45:38;;;;;;;;;0.50;0.50;;;;;18.07;63.55;101114.78;6194506;22;45802;-81
2021/12/30 05:48:04;;;;;;;;;2.75;1.00;;;;;18.03;63.67;101129.19;6194725;22;46853;-81
2021/12/30 05:50:33;;;;;;;;;0.50;0.50;;;;;18.03;63.69;101123.78;6192663;22;45341;-82
2021/12/30 05:52:59;;;;;;;;;4.00;2.25;;;;;17.93;63.53;101120.31;6218958;22;45315;-81
2021/12/30 05:55:24;;;;;;;;;1.50;1.50;;;;;17.93;63.95;101128.38;6193432;22;45407;-81
2021/12/30 05:57:52;;;;;;;;;0.50;0.50;;;;;17.85;63.91;101118.59;6191158;22;48269;-82
2021/12/30 06:00:20;;;;;;;;;1.00;1.00;;;;;17.98;63.48;101120.28;6190076;22;45350;-81
2021/12/30 06:02:46;;;;;;;;;1.50;1.00;;;;;17.79;63.86;101119.53;6217427;22;45659;-81
2021/12/30 06:05:12;;;;;;;;;2.75;1.00;;;;;17.86;63.95;101123.09;6217242;22;45395;-81
2021/12/30 06:07:38;;;;;;;;;1.00;1.00;;;;;17.78;63.82;101129.41;6190432;22;46666;-81
2021/12/30 06:10:04;;;;;;;;;2.00;1.25;;;;;17.83;63.53;101125.78;6216891;22;45521;-81
2021/12/30 06:15:53;;;;;;;;;1.50;1.50;;;;;17.87;64.00;101127.56;6219666;22;45740;-81
2021/12/30 06:18:19;;;;;;;;;1.50;1.50;;;;;17.66;63.91;101142.97;6189880;22;46881;-80
2021/12/30 06:20:44;;;;;;;;;3.25;1.00;;;;;17.62;64.00;101130.44;6217872;22;45282;-81
2021/12/30 06:23:11;;;;;;;;;5.25;1.50;;;;;17.53;64.15;101127.81;6218742;22;45279;-81
2021/12/30 06:25:36;;;;;;;;;3.00;1.50;;;;;17.49;64.05;101137.75;6217524;22;45331;-81
2021/12/30 06:28:02;;;;;;;;;3.00;1.00;;;;;17.51;64.39;101135.00;6216283;22;48164;-81
2021/12/30 06:30:27;;;;;;;;;2.25;2.25;;;;;17.42;64.35;101135.09;6221440;22;45283;-81
2021/12/30 06:32:53;;;;;;;;;3.00;2.25;;;;;17.45;63.95;101143.13;6219165;22;45570;-81
2021/12/30 06:35:18;;;;;;;;;2.25;2.25;;;;;17.38;64.41;101144.97;6192008;22;45422;-81
2021/12/30 06:37:43;;;;;;;;;1.25;1.25;;;;;17.42;64.26;101151.25;6219114;22;45918;-82
2021/12/30 06:40:12;;;;;;;;;4.00;3.00;;;;;17.54;64.38;101161.91;6219520;22;45720;-81
2021/12/30 06:42:41;;;;;;;;;5.00;3.00;;;;;17.53;64.36;101163.69;6188919;22;45415;-82
2021/12/30 06:45:07;;;;;;;;;4.50;2.25;;;;;17.30;64.47;101153.09;6192234;22;45529;-81
2021/12/30 06:47:32;;;;;;;;;4.50;4.50;;;;;17.26;64.84;101161.19;6219584;22;44930;-81
2021/12/30 06:50:01;;;;;;;;;3.00;2.50;;;;;17.22;64.79;101148.69;6190511;22;45341;-82
2021/12/30 06:52:28;;;;;;;;;2.00;2.00;;;;;17.20;64.46;101154.06;6192248;22;45414;-82
2021/12/30 06:54:53;;;;;;;;;1.00;1.00;;;;;17.16;64.88;101168.44;6220679;22;45336;-81
2021/12/30 06:57:19;;;;;;;;;2.75;1.25;;;;;17.09;64.95;101169.38;6191943;22;46663;-81
2021/12/30 06:59:45;;;;;;;;;3.00;2.00;;;;;17.21;64.53;101169.31;6191058;22;46187;-81
2021/12/30 07:02:11;;;;;;;;;3.00;2.25;;;;;17.12;64.65;101169.34;6191037;22;45383;-81
2021/12/30 07:05:18;;;;;;;;;3.50;2.25;;;;;17.42;64.05;101176.31;6207064;22;45494;-81
2021/12/30 07:07:46;;;;;;;;;3.00;3.00;;;;;17.11;64.49;101178.34;6217257;22;45284;-81
2021/12/30 07:10:12;;;;;;;;;3.50;2.25;;;;;17.18;64.51;101185.44;6216929;22;45725;-81
2021/12/30 07:12:38;;;;;;;;;2.00;2.00;;;;;17.20;64.32;101178.25;6190505;22;45489;-81
2021/12/30 07:15:06;;;;;;;;;1.50;1.50;;;;;17.40;64.23;101180.81;6190567;22;45837;-81
2021/12/30 07:17:32;;;;;;;;;3.50;3.50;;;;;17.26;64.39;101188.97;6218075;22;45381;-82
2021/12/30 07:19:58;;;;;;;;;2.75;2.75;;;;;17.25;63.97;101173.75;6191101;22;45350;-81
2021/12/30 07:22:24;;;;;;;;;2.25;2.25;;;;;17.37;64.06;101183.50;6192022;22;45379;-81
2021/12/30 07:24:49;;;;;;;;;4.75;3.75;;;;;17.41;63.83;101174.56;6218795;22;45576;-81
2021/12/30 07:27:15;;;;;;;;;1.50;1.50;;;;;17.49;63.39;101190.59;6217728;22;45988;-81
2021/12/30 07:29:41;;;;;;;;;1.50;1.00;;;;;17.55;63.16;101201.31;6191018;22;45395;-81
2021/12/30 07:32:06;;;;;;;;;4.00;3.50;;;;;17.63;63.28;101195.88;6190258;22;45178;-80
2021/12/30 07:34:32;;;;;;;;;4.25;4.00;;;;;17.59;63.21;101192.31;6219293;22;45516;-81
2021/12/30 07:36:57;;;;;;;;;2.00;1.50;;;;;17.70;63.10;101193.13;6191684;22;46905;-81
2021/12/30 07:39:23;;;;;;;;;3.00;2.00;;;;;17.71;62.65;101192.22;6219969;22;45432;-79
2021/12/30 07:41:48;;;;;;;;;2.25;2.25;;;;;17.70;62.40;101201.22;6192678;22;45517;-80
2021/12/30 07:44:15;;;;;;;;;3.75;2.50;;;;;17.70;62.60;101213.78;6193023;22;45746;-80
2021/12/30 07:46:40;;;;;;;;;3.00;2.25;;;;;17.73;62.50;101211.97;6190260;22;46477;-80
2021/12/30 07:49:06;;;;;;;;;5.25;4.25;;;;;17.76;62.52;101208.34;6192737;22;45366;-80
2021/12/30 07:51:33;;;;;;;;;4.00;2.25;;;;;17.96;62.33;101208.22;6217257;22;45426;-80
2021/12/30 07:53:58;;;;;;;;;5.00;5.00;;;;;17.76;62.38;101211.91;6220275;22;45322;-80
2021/12/30 07:56:23;;;;;;;;;4.50;2.25;;;;;17.85;61.87;101226.22;6190842;22;45863;-80
2021/12/30 07:58:49;;;;;;;;;3.50;3.00;;;;;17.70;61.94;101198.53;6217897;22;45405;-81
2021/12/30 08:01:14;;;;;;;;;4.50;3.75;;;;;17.84;61.58;101232.53;6190334;22;45281;-80
2021/12/30 08:03:40;;;;;;;;;3.50;3.25;;;;;17.87;62.08;101244.16;6219900;22;45379;-81
2021/12/30 08:06:05;;;;;;;;;3.75;2.25;;;;;17.84;61.65;101243.31;6219427;22;46115;-81
2021/12/30 08:08:31;;;;;;;;;6.50;4.75;;;;;17.89;62.09;101250.41;6220939;22;45350;-80
2021/12/30 08:10:56;;;;;;;;;2.75;2.75;;;;;17.90;61.30;101251.31;6219952;22;45873;-80
2021/12/30 08:13:23;;;;;;;;;5.00;4.75;;;;;17.88;61.33;101247.75;6194314;22;45428;-81
2021/12/30 08:15:51;;;;;;;;;5.25;4.75;;;;;18.08;61.47;101255.66;6220425;22;46090;-81
2021/12/30 08:18:17;;;;;;;;;2.00;1.00;;;;;17.84;61.65;101268.41;6222252;22;45411;-80
2021/12/30 08:20:42;;;;;;;;;4.00;3.00;;;;;17.92;61.81;101276.41;6222475;22;45196;-81
2021/12/30 08:23:08;;;;;;;;;4.50;4.00;;;;;17.96;61.84;101279.06;6194271;22;45435;-81
2021/12/30 08:25:33;;;;;;;;;2.25;2.00;;;;;17.95;61.53;101279.06;6222516;22;45339;-82
2021/12/30 08:27:59;;;;;;;;;5.25;1.50;;;;;17.95;61.51;101279.06;6221236;22;44776;-80
2021/12/30 08:30:25;;;;;;;;;2.25;2.25;;;;;17.97;61.60;101283.53;6220261;22;45397;-79
2021/12/30 08:32:57;;;;;;;;;3.75;3.75;;;;;18.28;61.02;101285.06;6219224;22;45486;-80
2021/12/30 08:35:23;;;;;;;;;3.75;3.00;;;;;18.04;61.23;101308.63;6194105;22;46857;-81
2021/12/30 08:37:52;;;;;;;;;1.00;1.00;;;;;18.22;61.08;101306.66;6194265;22;45783;-81
2021/12/30 08:40:18;;;;;;;;;3.25;3.00;;;;;18.08;61.16;101321.16;6220698;22;44769;-81
2021/12/30 08:42:44;;;;;;;;;4.50;4.50;;;;;18.10;61.59;101302.31;6218491;22;45402;-81
2021/12/30 08:45:10;;;;;;;;;6.50;5.00;;;;;18.11;61.05;101304.94;6218052;22;46399;-82
2021/12/30 08:47:36;;;;;;;;;5.75;5.00;;;;;18.22;61.32;101306.66;6192534;22;45283;-81
2021/12/30 08:50:10;;;;;;;;;6.00;5.75;;;;;18.37;61.09;101296.66;6219303;22;45388;-82
2021/12/30 08:52:36;;;;;;;;;7.25;3.00;;;;;18.18;60.86;101297.75;6192186;22;45296;-82
2021/12/30 08:55:07;;;;;;;;;4.25;2.75;;;;;18.20;61.08;101301.31;6192205;22;46667;-81
2021/12/30 08:57:36;;;;;;;;;2.25;2.25;;;;;18.23;60.94;101298.59;6193652;22;45450;-82
2021/12/30 09:00:11;;;;;;;;;5.50;3.00;;;;;18.25;60.97;101301.28;6191316;22;45316;-82
2021/12/30 09:05:59;;;;;;;;;4.00;2.75;;;;;18.18;61.32;101295.94;6220856;22;45621;-82
2021/12/30 09:08:24;;;;;;;;;3.75;3.75;;;;;18.21;60.78;101299.50;6221569;22;45391;-81
2021/12/30 09:10:50;;;;;;;;;6.75;3.00;;;;;18.16;60.81;101299.56;6195959;22;45343;-81
2021/12/30 09:13:18;;;;;;;;;4.00;4.00;;;;;18.32;61.12;101302.97;6199795;22;45351;-80
2021/12/30 09:19:06;;;;;;;;;3.75;3.75;;;;;18.30;60.79;101318.25;6220278;22;45344;-80
2021/12/30 09:21:32;;;;;;;;;5.00;4.25;;;;;18.31;60.91;101318.25;6193791;22;45285;-80
2021/12/30 09:23:57;;;;;;;;;3.00;3.00;;;;;18.43;60.61;101325.34;6192990;22;44825;-80
2021/12/30 09:26:22;;;;;;;;;2.50;2.25;;;;;18.43;60.70;101321.75;6219891;22;46041;-81
2021/12/30 09:28:50;;;;;;;;;7.75;4.00;;;;;18.53;60.42;101313.56;6195491;22;45299;-81
2021/12/30 09:31:16;;;;;;;;;5.50;4.25;;;;;18.41;60.63;101332.53;6221314;22;45453;-79
2021/12/30 09:33:41;;;;;;;;;6.00;3.25;;;;;18.47;61.03;101326.22;6219937;22;45625;-80
2021/12/30 09:36:07;;;;;;;;;6.00;4.00;;;;;18.44;60.39;101329.84;6169439;22;47022;-80
2021/12/30 09:38:32;;;;;;;;;6.50;4.50;;;;;18.50;60.24;101335.16;6197599;22;46172;-82
2021/12/30 09:40:59;;;;;;;;;4.00;4.00;;;;;18.72;60.45;101332.22;6196066;22;45420;-80
2021/12/30 09:43:25;;;;;;;;;5.50;4.50;;;;;18.54;60.44;101331.53;6193376;22;45338;-81
2021/12/30 09:45:51;;;;;;;;;5.75;4.00;;;;;18.59;60.31;101328.78;6219603;22;45792;-80
2021/12/30 09:48:18;;;;;;;;;5.00;5.00;;;;;18.77;60.14;101320.50;6217849;22;45306;-80
2021/12/30 09:50:47;;;;;;;;;8.50;4.75;;;;;18.82;59.85;101330.38;6193090;22;44778;-80
2021/12/30 09:53:17;;;;;;;;;4.25;4.25;;;;;18.78;59.49;101314.22;6220675;22;45387;-80
2021/12/30 09:55:43;;;;;;;;;3.00;3.00;;;;;18.65;60.15;101331.41;6219788;22;46562;-80
2021/12/30 09:58:08;;;;;;;;;6.50;5.00;;;;;18.71;60.08;101330.47;6195037;22;45597;-81
2021/12/30 10:00:36;;;;;;;;;4.75;4.75;;;;;19.02;59.91;101338.25;6199354;22;45773;-80
2021/12/30 10:03:02;;;;;;;;;4.25;2.00;;;;;18.91;59.61;101338.38;6199287;22;45380;-80
2021/12/30 10:06:06;;;;;;;;;4.00;4.00;;;;;19.30;58.96;101337.00;6220475;22;45380;-80
2021/12/30 10:08:36;;;;;;;;;4.50;3.75;;;;;18.93;59.51;101334.75;6197057;22;45457;-81
2021/12/30 10:11:13;;;;;;;;;3.50;3.00;;;;;19.24;58.97;101344.28;6194345;22;45472;-80
2021/12/30 10:13:47;;;;;;;;;5.75;5.75;;;;;18.97;59.53;101336.50;6198509;22;45426;-81
2021/12/30 10:16:15;;;;;;;;;4.75;4.00;;;;;18.96;59.41;101323.91;6193735;22;45733;-82
2021/12/30 10:19:05;;;;;;;;;4.75;3.00;;;;;19.24;59.02;101328.09;6221152;22;45405;-81
2021/12/30 10:21:37;;;;;;;;;4.75;3.00;;;;;19.21;59.52;101339.84;6190061;22;45366;-80
2021/12/30 10:24:07;;;;;;;;;5.00;3.75;;;;;19.32;59.11;101343.28;6197003;22;45495;-80
2021/12/30 10:26:54;;;;;;;;;4.50;3.00;;;;;19.59;58.40;101352.81;6194940;22;47381;-80
2021/12/30 10:29:22;;;;;;;;;3.00;3.00;;;;;19.56;58.84;101360.06;6224124;22;45408;-80
2021/12/30 10:31:48;;;;;;;;;5.50;4.25;;;;;19.36;58.83;101339.63;6219532;22;45306;-80
2021/12/30 10:34:16;;;;;;;;;5.25;4.00;;;;;19.49;59.20;101344.84;6222759;22;44820;-81
2021/12/30 10:36:45;;;;;;;;;4.00;3.00;;;;;19.70;58.78;101339.19;6194274;22;47266;-81
2021/12/30 10:39:21;;;;;;;;;3.25;3.25;;;;;19.85;58.19;101338.09;6192170;22;45323;-81
2021/12/30 10:41:50;;;;;;;;;4.75;3.00;;;;;19.70;58.72;101322.09;6222280;22;45390;-82
2021/12/30 10:44:18;;;;;;;;;5.00;5.00;;;;;19.60;58.45;101332.13;6197217;22;45480;-82
2021/12/30 10:46:46;;;;;;;;;4.00;4.00;;;;;19.61;58.50;101327.63;6197149;22;47662;-80
2021/12/30 10:49:21;;;;;;;;;6.00;3.00;;;;;19.80;57.67;101320.19;6220208;22;45366;-81
2021/12/30 10:51:50;;;;;;;;;3.00;3.00;;;;;19.69;58.07;101326.63;6229018;22;45430;-81
2021/12/30 10:54:27;;;;;;;;;2.50;2.50;;;;;19.78;58.05;101329.19;6225360;22;45327;-80
2021/12/30 10:57:08;;;;;;;;;5.00;4.75;;;;;19.83;58.03;101322.84;6223886;22;45535;-80
2021/12/30 10:59:36;;;;;;;;;2.50;2.50;;;;;19.68;58.81;101323.94;6195752;22;45401;-80
2021/12/30 11:02:15;;;;;;;;;8.00;4.50;;;;;19.86;58.39;101328.19;6227613;22;45781;-80
2021/12/30 11:04:47;;;;;;;;;4.00;3.00;;;;;19.68;58.48;101342.81;6194068;22;45421;-80
2021/12/30 11:07:17;;;;;;;;;3.50;3.25;;;;;19.86;57.76;101328.19;6192209;22;46965;-80
2021/12/30 11:09:46;;;;;;;;;3.75;3.00;;;;;19.93;58.09;101343.38;6195144;22;45489;-81
2021/12/30 11:12:12;;;;;;;;;6.00;5.25;;;;;19.71;58.48;101341.00;6224930;22;45368;-81
2021/12/30 11:14:38;;;;;;;;;5.00;2.75;;;;;19.75;58.21;101342.75;6223938;22;45148;-81
2021/12/30 11:17:14;;;;;;;;;3.00;3.00;;;;;20.21;57.79;101345.66;6221399;22;45274;-81
2021/12/30 11:19:43;;;;;;;;;2.00;2.00;;;;;20.26;57.86;101343.75;6221217;22;45331;-80
2021/12/30 11:22:14;;;;;;;;;5.00;3.50;;;;;20.28;58.00;101340.13;6195630;22;45763;-81
2021/12/30 11:24:43;;;;;;;;;2.25;2.25;;;;;20.25;57.59;101333.88;6198451;22;45384;-81
2021/12/30 11:27:10;;;;;;;;;3.50;2.50;;;;;20.29;57.44;101343.72;6195582;22;45236;-80
2021/12/30 11:29:38;;;;;;;;;5.25;3.25;;;;;20.30;57.31;101343.69;6197748;22;45273;-81
2021/12/30 11:32:06;;;;;;;;;2.25;2.25;;;;;20.35;57.32;101346.31;6197733;22;45351;-81
2021/12/30 11:34:33;;;;;;;;;4.00;3.00;;;;;20.23;56.88;101343.81;6224183;22;45330;-80
2021/12/30 11:36:59;;;;;;;;;2.25;2.25;;;;;20.15;57.26;101335.84;6196575;22;46900;-81
2021/12/30 11:39:27;;;;;;;;;4.00;4.00;;;;;20.32;57.09;101346.34;6225419;22;45435;-81
2021/12/30 11:41:54;;;;;;;;;2.00;2.00;;;;;20.47;57.08;101354.22;6226663;22;45287;-81
2021/12/30 11:44:38;;;;;;;;;4.00;4.00;;;;;20.64;55.84;101347.66;6199661;22;45496;-82